Flight Track Log - Related Links

Times and Time Zones

All times are in EDT time to prevent confusion due to time zone crossing. See the BHR29 flight status page for this flight to view local times or setup timezone preferences in your user account.

Time Position Orientation Groundspeed Altitude Reporting Facility
EDT Latitude Longitude Course Direction KTS MPH feet Rate Location/Type
Wed 08:11:40 PM 40.4500 -104.6333 360° North 148 170 5,400  Level Denver TRACON
Wed 08:12:35 PM 40.5000 -104.6333 360° North 177 204 6,900 1,357 Climbing Denver TRACON
Wed 08:13:35 PM 40.5500 -104.6333 360° North 193 222 8,000 1,289 Climbing Denver TRACON
Wed 08:15:04 PM 40.6283 -104.6467 353° North 181 208 10,100 1,550 Climbing Denver Center
Wed 08:16:06 PM 40.6786 -104.6589 350° North 182 209 11,900 1,790 Climbing Denver Center
Wed 08:17:08 PM 40.7325 -104.6711 350° North 185 213 13,800 1,790 Climbing Denver Center
Wed 08:18:10 PM 40.7892 -104.6844 350° North 192 221 15,600 1,694 Climbing Denver Center
Wed 08:19:12 PM 40.8389 -104.7111 338° Northwest 192 221 17,300 1,548 Climbing Denver Center
Wed 08:20:14 PM 40.8883 -104.7403 336° Northwest 194 223 18,800 1,500 Climbing Denver Center
Wed 08:21:16 PM 40.9394 -104.7681 338° Northwest 197 227 20,400 1,548 Climbing Denver Center
Wed 08:22:18 PM 40.9906 -104.7975 337° Northwest 200 230 22,000 1,645 Climbing Denver Center
Wed 08:23:20 PM 41.0481 -104.8242 341° North 191 220 23,800 1,403 Climbing Denver Center
Wed 08:24:22 PM 41.0944 -104.8511 336° Northwest 189 217 24,900 968 Climbing Denver Center
Wed 08:25:24 PM 41.1539 -104.8833 338° Northwest 202 232 25,800 532 Climbing Denver Center
Wed 08:26:26 PM 41.2083 -104.9114 339° North 215 247 26,000 96 Climbing Denver Center
Wed 08:27:29 PM 41.2772 -104.9500 337° Northwest 233 268 26,000  Level Denver Center
Wed 08:28:31 PM 41.3392 -104.9839 338° Northwest 245 282 26,000  Level Denver Center
Wed 08:29:33 PM 41.4017 -105.0211 336° Northwest 254 292 26,000  Level Denver Center
Wed 08:30:35 PM 41.4742 -105.0583 339° North 251 289 26,000  Level Denver Center
Wed 08:31:37 PM 41.5369 -105.0942 337° Northwest 253 291 26,000  Level Denver Center
Wed 08:32:39 PM 41.6122 -105.1342 338° Northwest 258 297 26,000  Level Denver Center
Wed 08:33:41 PM 41.6747 -105.1683 338° Northwest 254 292 26,000  Level Denver Center
Wed 08:34:43 PM 41.7489 -105.2103 337° Northwest 259 298 26,000  Level Denver Center
Wed 08:35:45 PM 41.8128 -105.2450 338° Northwest 259 298 26,000 48 Level Denver Center
Wed 08:36:47 PM 41.8881 -105.2867 338° Northwest 259 298 26,100  Climbing Denver Center
Wed 08:37:49 PM 41.9533 -105.3250 336° Northwest 265 305 26,000 -48 Descending Denver Center
Wed 08:38:51 PM 42.0292 -105.3661 338° Northwest 260 299 26,000  Level Denver Center
Wed 08:39:53 PM 42.0925 -105.4022 337° Northwest 258 297 26,000  Level Denver Center
Wed 08:40:55 PM 42.1578 -105.4386 338° Northwest 262 302 26,000  Level Denver Center
Wed 08:41:57 PM 42.2325 -105.4814 337° Northwest 260 299 26,000  Level Denver Center
Wed 08:42:59 PM 42.2983 -105.5172 338° Northwest 265 305 26,000  Level Denver Center
Wed 08:44:01 PM 42.3717 -105.5600 337° Northwest 258 297 26,000  Level Denver Center
Wed 08:45:03 PM 42.4358 -105.5964 337° Northwest 260 299 26,000  Level Denver Center
Wed 08:46:05 PM 42.5069 -105.6364 337° Northwest 249 287 26,000  Level Denver Center
Wed 08:47:08 PM 42.5700 -105.6739 336° Northwest 254 292 26,000  Level Denver Center
Wed 08:48:10 PM 42.6436 -105.7142 338° Northwest 255 293 26,000  Level Denver Center
Wed 08:49:12 PM 42.7092 -105.7511 338° Northwest 264 304 26,000  Level Denver Center
Wed 08:50:14 PM 42.7831 -105.7942 337° Northwest 260 299 26,000  Level Denver Center
Wed 08:51:16 PM 42.8447 -105.8294 337° Northwest 254 292 26,000  Level Denver Center
Wed 08:52:18 PM 42.9075 -105.8661 337° Northwest 254 292 26,000  Level Denver Center
Wed 08:53:19 PM 42.9814 -105.9083 337° Northwest 256 295 26,000  Level Denver Center
Wed 08:54:21 PM 43.0431 -105.9444 337° Northwest 254 292 26,000  Level Denver Center
Wed 08:55:23 PM 43.1178 -105.9883 337° Northwest 260 299 26,000  Level Denver Center
Wed 08:56:25 PM 43.1806 -106.0242 337° Northwest 257 296 26,000  Level Denver Center
Wed 08:57:27 PM 43.2533 -106.0675 337° Northwest 255 293 26,000  Level Denver Center
Wed 08:58:29 PM 43.3175 -106.1044 337° Northwest 259 298 26,000  Level Denver Center
Wed 08:59:31 PM 43.3922 -106.1478 337° Northwest 261 300 26,000  Level Denver Center
Wed 09:00:33 PM 43.4556 -106.1864 336° Northwest 259 298 26,000  Level Denver Center
Wed 09:01:35 PM 43.5306 -106.2300 337° Northwest 262 302 26,000  Level Denver Center
Wed 09:02:37 PM 43.5925 -106.2681 336° Northwest 256 295 26,000  Level Denver Center
Wed 09:03:39 PM 43.6544 -106.3047 337° Northwest 254 292 26,000  Level Denver Center
Wed 09:04:41 PM 43.7300 -106.3489 337° Northwest 260 299 26,000  Level Denver Center
Wed 09:05:43 PM 43.7919 -106.3850 337° Northwest 255 293 26,000  Level Denver Center
Wed 09:06:45 PM 43.8653 -106.4286 337° Northwest 256 295 26,000  Level Denver Center
Wed 09:07:46 PM 43.9297 -106.4681 336° Northwest 263 303 26,000  Level Denver Center
Wed 09:08:48 PM 44.0044 -106.5128 337° Northwest 261 300 26,000 -290 Level Denver Center
Wed 09:09:50 PM 44.0678 -106.5517 336° Northwest 260 299 25,400 -919 Descending Denver Center
Wed 09:10:52 PM 44.1469 -106.5994 337° Northwest 273 314 24,100 -1,282 Descending Denver Center
Wed 09:11:33 PM 44.1928 -106.6278 336° Northwest 275 316 23,200 -1,353 Descending Salt Lake Center
Wed 09:12:34 PM 44.2611 -106.6667 338° Northwest 276 318 21,800 -1,463 Descending Salt Lake Center
Wed 09:13:36 PM 44.3403 -106.7144 337° Northwest 278 320 20,200 -1,500 Descending Salt Lake Center
Wed 09:14:38 PM 44.4053 -106.7547 336° Northwest 273 314 18,700 -1,344 Descending Salt Lake Center
Wed 09:15:41 PM 44.4658 -106.7892 338° Northwest 259 298 17,400 -1,561 Descending Salt Lake Center
Wed 09:16:41 PM 44.5256 -106.8197 340° North 224 258 15,500 -1,820 Descending Salt Lake Center
Wed 09:17:43 PM 44.5725 -106.8444 339° North 204 235 13,700 -1,366 Descending Salt Lake Center
Wed 09:18:44 PM 44.6186 -106.8794 332° Northwest 199 229 12,700 -984 Descending Salt Lake Center
Wed 09:20:00 PM 44.6949 -106.9343 333° Northwest  Level FlightAware Approximate

Login

Don't have an account? Register now (free) for customized features, flight alerts, and more!